Time;durP1;ratioP1;P1;durP2;ratioP2;P2;SDS_P1;SDS_P2;PMS_P1;PMS_P2;Temp;Humidity;BMP_temperature;BMP_pressure;BME280_temperature;BME280_humidity;BME280_pressure;Samples;Min_cycle;Max_cycle;Signal;HPM_P1;HPM_P2
2023/12/22 00:00:32;;;;;;;2.23;0.30;;;4.10;99.90;;;;;;5088891;28;20542;-76
2023/12/22 00:03:01;;;;;;;0.73;0.30;;;4.00;99.90;;;;;;5081488;28;21179;-75
2023/12/22 00:05:28;;;;;;;0.40;0.20;;;4.00;99.90;;;;;;5077709;28;20539;-75
2023/12/22 00:07:55;;;;;;;0.40;0.20;;;3.90;99.90;;;;;;5082182;28;20544;-75
2023/12/22 00:10:22;;;;;;;1.00;0.20;;;3.90;99.90;;;;;;5084841;28;20494;-75
2023/12/22 00:12:50;;;;;;;0.47;0.20;;;3.90;99.90;;;;;;5080152;28;20455;-75
2023/12/22 00:15:17;;;;;;;0.40;0.20;;;3.90;99.90;;;;;;5070028;28;20482;-77
2023/12/22 00:17:44;;;;;;;1.40;0.20;;;3.90;99.90;;;;;;5085462;28;20501;-76
2023/12/22 00:20:14;;;;;;;0.40;0.20;;;3.90;99.90;;;;;;5086421;28;20543;-78
2023/12/22 00:22:41;;;;;;;0.40;0.20;;;3.90;99.90;;;;;;5084871;28;20482;-79
2023/12/22 00:25:09;;;;;;;2.50;0.20;;;3.90;99.90;;;;;;5084894;28;20562;-76
2023/12/22 00:27:36;;;;;;;2.00;0.30;;;3.90;99.90;;;;;;5088188;28;20439;-75
2023/12/22 00:30:05;;;;;;;0.93;0.27;;;3.90;99.90;;;;;;5083556;28;20459;-78
2023/12/22 00:32:33;;;;;;;0.40;0.20;;;3.90;99.90;;;;;;5086260;28;20458;-77
2023/12/22 00:35:00;;;;;;;1.23;0.20;;;3.90;99.90;;;;;;5077641;28;20559;-78
2023/12/22 00:37:26;;;;;;;0.40;0.20;;;3.90;99.90;;;;;;5083853;28;20533;-74
2023/12/22 00:39:53;;;;;;;0.30;0.20;;;3.90;99.90;;;;;;5084649;28;20899;-74
2023/12/22 00:42:20;;;;;;;0.40;0.30;;;3.90;99.90;;;;;;5078080;28;20514;-75
2023/12/22 00:44:47;;;;;;;0.40;0.20;;;3.90;99.90;;;;;;5076945;28;20488;-76
2023/12/22 00:47:15;;;;;;;0.70;0.20;;;3.90;99.90;;;;;;5072936;28;20537;-78
2023/12/22 00:49:42;;;;;;;0.60;0.23;;;4.00;99.90;;;;;;5069629;28;20539;-76
2023/12/22 00:52:09;;;;;;;0.40;0.20;;;4.00;99.90;;;;;;5085433;28;20546;-75
2023/12/22 00:54:36;;;;;;;1.23;0.40;;;4.00;99.90;;;;;;5068930;28;20534;-75
2023/12/22 00:57:03;;;;;;;0.40;0.20;;;4.00;99.90;;;;;;5076484;28;20550;-74
2023/12/22 00:59:30;;;;;;;0.40;0.20;;;4.00;99.90;;;;;;5081299;28;20445;-75
2023/12/22 01:01:57;;;;;;;0.30;0.20;;;3.90;99.90;;;;;;5078521;28;21089;-76
2023/12/22 01:04:25;;;;;;;0.63;0.27;;;3.90;99.90;;;;;;5079050;28;20537;-75
2023/12/22 01:06:53;;;;;;;0.30;0.20;;;3.90;99.90;;;;;;5083652;28;20538;-75
2023/12/22 01:09:20;;;;;;;0.77;0.30;;;3.90;99.90;;;;;;5077579;28;20482;-76
2023/12/22 01:11:46;;;;;;;0.53;0.27;;;3.80;99.90;;;;;;5082806;28;20570;-75
2023/12/22 01:14:14;;;;;;;0.50;0.20;;;3.80;99.90;;;;;;5078881;28;20502;-78
2023/12/22 01:16:41;;;;;;;0.30;0.20;;;3.80;99.90;;;;;;5071798;28;20496;-75
2023/12/22 01:19:07;;;;;;;0.40;0.20;;;3.80;99.90;;;;;;5072677;28;20513;-78
2023/12/22 01:21:36;;;;;;;1.20;0.40;;;3.80;99.90;;;;;;5074270;28;21087;-76
2023/12/22 01:24:03;;;;;;;0.73;0.20;;;3.90;99.90;;;;;;5077908;28;20942;-76
2023/12/22 01:26:30;;;;;;;0.40;0.20;;;3.90;99.90;;;;;;5068140;28;20467;-74
2023/12/22 01:28:57;;;;;;;0.40;0.20;;;4.00;99.90;;;;;;5080329;28;20435;-76
2023/12/22 01:31:24;;;;;;;0.40;0.20;;;4.00;99.90;;;;;;5069841;28;20516;-79
2023/12/22 01:33:51;;;;;;;0.40;0.20;;;4.00;99.90;;;;;;5079206;28;20524;-78
2023/12/22 01:36:18;;;;;;;0.77;0.20;;;4.10;99.90;;;;;;5073218;28;20443;-77
2023/12/22 01:38:46;;;;;;;0.40;0.20;;;4.10;99.90;;;;;;5080298;28;21195;-76
2023/12/22 01:41:13;;;;;;;0.60;0.30;;;4.20;99.90;;;;;;5066533;28;20887;-75
2023/12/22 01:43:40;;;;;;;1.67;1.57;;;4.10;99.90;;;;;;5071381;28;21166;-74
2023/12/22 01:46:08;;;;;;;1.77;0.30;;;4.10;99.90;;;;;;5086281;28;20444;-76
2023/12/22 01:48:37;;;;;;;0.40;0.20;;;4.10;99.90;;;;;;5075809;28;20539;-78
2023/12/22 01:51:05;;;;;;;1.83;0.40;;;4.00;99.90;;;;;;5077322;28;20538;-75
2023/12/22 01:53:33;;;;;;;0.70;0.40;;;4.00;99.90;;;;;;5084009;28;20524;-80
2023/12/22 01:56:02;;;;;;;0.80;0.30;;;4.00;99.90;;;;;;5075870;28;20497;-75
2023/12/22 01:58:31;;;;;;;0.40;0.20;;;4.10;99.90;;;;;;5080117;28;20458;-75
2023/12/22 02:00:58;;;;;;;0.60;0.30;;;4.10;99.90;;;;;;5082587;28;20502;-77
2023/12/22 02:03:25;;;;;;;0.40;0.23;;;4.10;99.90;;;;;;5077378;28;20472;-77
2023/12/22 02:05:52;;;;;;;2.77;0.30;;;4.20;99.90;;;;;;5083650;28;20495;-75
2023/12/22 02:08:21;;;;;;;0.37;0.20;;;4.20;99.90;;;;;;5082594;28;20456;-75
2023/12/22 02:10:48;;;;;;;1.77;0.30;;;4.20;99.90;;;;;;5084706;28;20491;-75
2023/12/22 02:13:16;;;;;;;0.40;0.20;;;4.30;99.90;;;;;;5083087;28;20967;-77
2023/12/22 02:15:43;;;;;;;0.40;0.20;;;4.40;99.90;;;;;;5074643;28;20980;-76
2023/12/22 02:18:15;;;;;;;1.90;0.40;;;4.40;99.90;;;;;;5084164;28;20454;-78
2023/12/22 02:20:44;;;;;;;0.60;0.23;;;4.30;99.90;;;;;;5081388;28;20809;-77
2023/12/22 02:23:12;;;;;;;0.73;0.20;;;4.30;99.90;;;;;;5071768;28;20963;-76
2023/12/22 02:25:39;;;;;;;0.40;0.30;;;4.30;99.90;;;;;;5078433;28;20444;-77
2023/12/22 02:28:10;;;;;;;0.40;0.20;;;4.30;99.90;;;;;;5075443;28;20496;-76
2023/12/22 02:30:44;;;;;;;4.50;0.50;;;4.20;99.90;;;;;;5085058;28;21068;-81
2023/12/22 02:33:13;;;;;;;0.40;0.20;;;4.10;99.90;;;;;;5084911;28;20541;-78
2023/12/22 02:35:42;;;;;;;0.40;0.30;;;4.10;99.90;;;;;;5075898;28;20555;-76
2023/12/22 02:38:10;;;;;;;4.57;0.30;;;4.00;99.90;;;;;;5083119;28;20455;-76
2023/12/22 02:40:39;;;;;;;0.70;0.40;;;3.90;99.90;;;;;;5079472;28;20448;-79
2023/12/22 02:43:07;;;;;;;0.40;0.30;;;3.90;99.90;;;;;;5079747;28;20511;-76
2023/12/22 02:45:34;;;;;;;3.60;0.30;;;3.90;99.90;;;;;;5077600;28;20503;-76
2023/12/22 02:48:01;;;;;;;4.77;0.30;;;3.90;99.90;;;;;;5081106;28;20540;-76
2023/12/22 02:50:28;;;;;;;0.40;0.20;;;4.00;99.90;;;;;;5085744;28;20844;-76
2023/12/22 02:52:56;;;;;;;0.50;0.23;;;3.90;99.90;;;;;;5076622;28;20490;-75
2023/12/22 02:55:23;;;;;;;0.50;0.37;;;3.90;99.90;;;;;;5086659;28;20487;-76
2023/12/22 02:57:51;;;;;;;0.40;0.20;;;3.90;99.90;;;;;;5085369;28;20532;-76
2023/12/22 03:00:18;;;;;;;0.50;0.30;;;4.00;99.90;;;;;;5083501;28;20515;-76
2023/12/22 03:02:45;;;;;;;0.60;0.30;;;3.90;99.90;;;;;;5077337;28;20486;-76
2023/12/22 03:05:12;;;;;;;1.90;0.30;;;3.90;99.90;;;;;;5087985;28;20494;-76
2023/12/22 03:07:39;;;;;;;0.50;0.30;;;3.90;99.90;;;;;;5082970;28;20451;-79
2023/12/22 03:10:07;;;;;;;0.40;0.27;;;4.00;99.90;;;;;;5085986;28;21016;-75
2023/12/22 03:12:34;;;;;;;0.80;0.30;;;4.00;99.90;;;;;;5091159;28;20527;-76
2023/12/22 03:15:02;;;;;;;0.40;0.20;;;4.00;99.90;;;;;;5079984;28;21071;-77
2023/12/22 03:17:29;;;;;;;2.13;0.30;;;4.00;99.90;;;;;;5086396;28;20482;-76
2023/12/22 03:19:56;;;;;;;0.97;0.67;;;4.10;99.90;;;;;;5082429;28;20458;-77
2023/12/22 03:22:23;;;;;;;1.67;0.40;;;4.00;99.90;;;;;;5088025;28;20482;-77
2023/12/22 03:24:50;;;;;;;2.73;0.30;;;4.00;99.90;;;;;;5082383;28;20536;-76
2023/12/22 03:27:18;;;;;;;1.07;0.20;;;4.00;99.90;;;;;;5079020;28;20528;-77
2023/12/22 03:29:45;;;;;;;0.53;0.30;;;3.90;99.90;;;;;;5086916;28;21323;-79
2023/12/22 03:32:13;;;;;;;1.40;0.40;;;4.00;99.90;;;;;;5084779;28;20512;-81
2023/12/22 03:34:41;;;;;;;0.43;0.30;;;3.90;99.90;;;;;;5092162;28;20478;-79
2023/12/22 03:37:08;;;;;;;5.23;0.67;;;3.80;99.90;;;;;;5079757;28;20451;-79
2023/12/22 03:39:35;;;;;;;2.03;1.40;;;3.80;99.90;;;;;;5087350;28;20894;-82
2023/12/22 03:42:02;;;;;;;1.80;0.53;;;3.80;99.90;;;;;;5084904;28;20534;-78
2023/12/22 03:44:28;;;;;;;0.90;0.30;;;3.70;99.90;;;;;;5078692;28;20467;-77
2023/12/22 03:46:55;;;;;;;2.00;0.40;;;3.50;99.90;;;;;;5082614;28;20500;-79
2023/12/22 03:49:24;;;;;;;0.83;0.30;;;3.40;99.90;;;;;;5088813;28;20454;-77
2023/12/22 03:51:51;;;;;;;2.77;0.30;;;3.20;99.90;;;;;;5068957;28;20943;-79
2023/12/22 03:54:18;;;;;;;1.00;0.50;;;3.10;99.90;;;;;;5085262;28;20671;-82
2023/12/22 03:56:45;;;;;;;1.43;0.30;;;3.00;99.90;;;;;;5083201;28;20500;-78
2023/12/22 03:59:13;;;;;;;2.20;0.30;;;3.00;99.90;;;;;;5075620;28;20451;-79
2023/12/22 04:01:40;;;;;;;3.10;0.40;;;3.00;99.90;;;;;;5081481;28;20479;-79
2023/12/22 04:04:07;;;;;;;0.70;0.37;;;3.00;99.90;;;;;;5078555;28;20471;-80
2023/12/22 04:06:39;;;;;;;2.33;0.30;;;3.00;99.90;;;;;;5087541;28;20482;-79
2023/12/22 04:09:06;;;;;;;1.37;0.40;;;2.90;99.90;;;;;;5072687;28;20487;-79
2023/12/22 04:11:34;;;;;;;0.90;0.37;;;3.00;99.90;;;;;;5082047;28;20482;-80
2023/12/22 04:14:01;;;;;;;2.00;0.40;;;2.90;99.90;;;;;;5080188;28;20978;-78
2023/12/22 04:16:28;;;;;;;1.30;0.37;;;2.90;99.90;;;;;;5082294;28;20900;-79
2023/12/22 04:18:55;;;;;;;0.47;0.30;;;2.90;99.90;;;;;;5080398;28;20467;-79
2023/12/22 04:21:22;;;;;;;0.80;0.40;;;2.80;99.90;;;;;;5076520;28;20492;-79
2023/12/22 04:23:50;;;;;;;1.17;0.60;;;2.80;99.90;;;;;;5078460;28;20486;-78
2023/12/22 04:26:17;;;;;;;0.70;0.40;;;2.80;99.90;;;;;;5072144;28;20521;-78
2023/12/22 04:28:44;;;;;;;3.13;0.60;;;2.80;99.90;;;;;;5081490;28;21069;-77
2023/12/22 04:31:11;;;;;;;1.20;0.30;;;2.80;99.90;;;;;;5074786;28;20477;-79
2023/12/22 04:33:38;;;;;;;1.37;0.50;;;2.80;99.90;;;;;;5086059;28;20934;-81
2023/12/22 04:36:05;;;;;;;0.40;0.30;;;2.70;99.90;;;;;;5086580;28;20490;-80
2023/12/22 04:38:32;;;;;;;1.00;0.40;;;2.70;99.90;;;;;;5084570;28;20464;-80
2023/12/22 04:41:00;;;;;;;0.37;0.23;;;2.70;99.90;;;;;;5087248;28;20531;-78
2023/12/22 04:43:27;;;;;;;2.00;0.43;;;2.70;99.90;;;;;;5080048;28;21021;-78
2023/12/22 04:45:54;;;;;;;0.30;0.20;;;2.60;99.90;;;;;;5081694;28;20532;-77
2023/12/22 04:48:21;;;;;;;2.20;0.40;;;2.60;99.90;;;;;;5086324;28;20518;-77
2023/12/22 04:50:48;;;;;;;3.43;0.97;;;2.60;99.90;;;;;;5083647;28;20491;-77
2023/12/22 04:53:15;;;;;;;2.63;0.97;;;2.60;99.90;;;;;;5086145;28;20470;-78
2023/12/22 04:55:42;;;;;;;0.73;0.33;;;2.60;99.90;;;;;;5076584;28;20483;-77
2023/12/22 04:58:10;;;;;;;1.07;0.60;;;2.60;99.90;;;;;;5082956;28;20500;-77
2023/12/22 05:00:37;;;;;;;0.50;0.30;;;2.60;99.90;;;;;;5081123;28;20503;-77
2023/12/22 05:03:04;;;;;;;0.50;0.23;;;2.60;99.90;;;;;;5084308;28;20491;-79
2023/12/22 05:05:31;;;;;;;0.30;0.20;;;2.50;99.90;;;;;;5086192;28;20454;-80
2023/12/22 05:07:58;;;;;;;0.40;0.30;;;2.50;99.90;;;;;;5080704;28;20540;-79
2023/12/22 05:10:26;;;;;;;0.40;0.30;;;2.50;99.90;;;;;;5088512;28;20463;-80
2023/12/22 05:12:53;;;;;;;0.40;0.30;;;2.50;99.90;;;;;;5085731;28;20501;-79
2023/12/22 05:15:21;;;;;;;2.47;0.37;;;2.50;99.90;;;;;;5086529;28;20466;-82
2023/12/22 05:17:48;;;;;;;0.40;0.30;;;2.60;99.90;;;;;;5086640;28;20462;-79
2023/12/22 05:20:15;;;;;;;0.50;0.30;;;2.60;99.90;;;;;;5089219;28;21008;-82
2023/12/22 05:22:42;;;;;;;1.63;0.40;;;2.60;99.90;;;;;;5079158;28;20528;-79
2023/12/22 05:25:10;;;;;;;0.50;0.30;;;2.60;99.90;;;;;;5076557;28;20529;-79
2023/12/22 05:27:37;;;;;;;0.70;0.30;;;2.60;99.90;;;;;;5078121;28;20522;-77
2023/12/22 05:30:05;;;;;;;0.97;0.30;;;2.50;99.90;;;;;;5079343;28;20525;-83
2023/12/22 05:32:33;;;;;;;0.47;0.30;;;2.40;99.90;;;;;;5073728;28;20458;-83
2023/12/22 05:35:00;;;;;;;0.43;0.40;;;2.50;99.90;;;;;;5078958;28;20470;-84
2023/12/22 05:37:27;;;;;;;0.57;0.30;;;2.50;99.90;;;;;;5081587;28;20465;-78
2023/12/22 05:39:55;;;;;;;0.33;0.20;;;2.40;99.90;;;;;;5082095;28;20462;-77
2023/12/22 05:42:22;;;;;;;0.40;0.23;;;2.40;99.90;;;;;;5088621;28;20471;-77
2023/12/22 05:44:49;;;;;;;0.50;0.37;;;2.40;99.90;;;;;;5080941;28;20466;-80
2023/12/22 05:47:16;;;;;;;0.60;0.30;;;2.50;99.90;;;;;;5091742;28;20466;-80
2023/12/22 05:49:45;;;;;;;0.40;0.30;;;2.50;99.90;;;;;;5080640;28;20490;-78
2023/12/22 05:52:13;;;;;;;1.37;0.60;;;2.50;99.90;;;;;;5083104;28;21028;-79
2023/12/22 05:54:40;;;;;;;0.47;0.37;;;2.50;99.90;;;;;;5078448;28;20508;-78
2023/12/22 05:57:07;;;;;;;1.33;0.43;;;2.50;99.90;;;;;;5083941;28;20503;-80
2023/12/22 05:59:34;;;;;;;2.20;0.60;;;2.60;99.90;;;;;;5086476;28;20459;-78
2023/12/22 06:02:02;;;;;;;0.40;0.30;;;2.60;99.90;;;;;;5083475;28;20546;-78
2023/12/22 06:04:29;;;;;;;0.40;0.27;;;2.60;99.90;;;;;;5079100;28;20902;-78
2023/12/22 06:06:57;;;;;;;0.50;0.37;;;2.60;99.90;;;;;;5080809;28;20721;-78
2023/12/22 06:09:24;;;;;;;2.00;0.60;;;2.70;99.90;;;;;;5082989;28;20467;-78
2023/12/22 06:11:51;;;;;;;0.40;0.30;;;2.70;99.90;;;;;;5081297;28;21148;-78
2023/12/22 06:14:18;;;;;;;0.40;0.30;;;2.70;99.90;;;;;;5079079;28;20588;-78
2023/12/22 06:16:45;;;;;;;0.40;0.30;;;2.70;99.90;;;;;;5080496;28;20561;-77
2023/12/22 06:19:12;;;;;;;0.60;0.40;;;2.70;99.90;;;;;;5082694;28;21009;-78
2023/12/22 06:21:40;;;;;;;0.60;0.40;;;2.70;99.90;;;;;;5076535;28;20455;-77
2023/12/22 06:24:09;;;;;;;1.10;0.60;;;2.80;99.90;;;;;;5083451;28;20489;-78
2023/12/22 06:26:36;;;;;;;0.50;0.40;;;2.80;99.90;;;;;;5072648;28;22738;-78
2023/12/22 06:29:04;;;;;;;0.43;0.40;;;2.80;99.90;;;;;;5079037;28;20507;-79
2023/12/22 06:31:34;;;;;;;3.27;0.50;;;2.80;99.90;;;;;;5080853;28;20586;-79
2023/12/22 06:34:02;;;;;;;0.60;0.30;;;2.90;99.90;;;;;;5076895;28;20497;-89
2023/12/22 06:36:29;;;;;;;1.63;0.40;;;3.00;99.90;;;;;;5079964;28;20455;-82
2023/12/22 06:38:57;;;;;;;1.17;0.40;;;3.00;99.90;;;;;;5084721;28;20451;-79
2023/12/22 06:41:27;;;;;;;0.40;0.30;;;3.00;99.90;;;;;;5080928;28;20565;-78
2023/12/22 06:43:54;;;;;;;1.77;0.37;;;3.00;99.90;;;;;;5083844;28;20891;-80
2023/12/22 06:46:23;;;;;;;0.40;0.30;;;3.00;99.90;;;;;;5077469;28;20470;-80
2023/12/22 06:48:50;;;;;;;0.40;0.30;;;3.00;99.90;;;;;;5085447;28;20542;-80
2023/12/22 06:51:20;;;;;;;0.83;0.30;;;3.00;99.90;;;;;;5085076;28;21044;-82
2023/12/22 06:53:48;;;;;;;0.50;0.20;;;3.00;99.90;;;;;;5100369;28;20471;-88
2023/12/22 06:56:19;;;;;;;0.40;0.30;;;3.00;99.90;;;;;;5088410;28;20539;-82
2023/12/22 06:58:48;;;;;;;1.33;0.30;;;2.90;99.90;;;;;;5088658;28;21359;-83
2023/12/22 07:01:20;;;;;;;0.57;0.30;;;2.90;99.90;;;;;;5081166;28;20485;-81
2023/12/22 07:03:48;;;;;;;0.70;0.40;;;2.80;99.90;;;;;;5088512;28;20501;-82
2023/12/22 07:06:15;;;;;;;0.30;0.20;;;2.80;99.90;;;;;;5085790;28;20533;-82
2023/12/22 07:08:43;;;;;;;0.30;0.20;;;2.70;99.90;;;;;;5086896;28;20458;-83
2023/12/22 07:11:10;;;;;;;0.30;0.20;;;2.70;99.90;;;;;;5087915;28;21276;-82
2023/12/22 07:13:37;;;;;;;0.47;0.30;;;2.70;99.90;;;;;;5086874;28;20547;-82
2023/12/22 07:16:06;;;;;;;0.50;0.30;;;2.70;99.90;;;;;;5088938;28;20439;-80
2023/12/22 07:18:33;;;;;;;0.40;0.30;;;2.70;99.90;;;;;;5080040;28;20461;-80
2023/12/22 07:21:00;;;;;;;0.30;0.20;;;2.70;99.90;;;;;;5086057;28;20490;-81
2023/12/22 07:23:27;;;;;;;1.00;0.30;;;2.70;99.90;;;;;;5077029;28;20483;-81
2023/12/22 07:25:54;;;;;;;0.30;0.20;;;2.70;99.90;;;;;;5081286;28;20454;-81
2023/12/22 07:28:21;;;;;;;0.40;0.30;;;2.70;99.90;;;;;;5082925;28;20943;-84
2023/12/22 07:30:48;;;;;;;0.70;0.30;;;2.70;99.90;;;;;;5085409;28;20478;-82
2023/12/22 07:33:16;;;;;;;0.97;0.40;;;2.70;99.90;;;;;;5088159;28;20488;-80
2023/12/22 07:35:47;;;;;;;1.17;0.40;;;2.70;99.90;;;;;;5079563;28;20471;-81
2023/12/22 07:38:15;;;;;;;2.40;0.30;;;2.70;99.90;;;;;;5087100;28;20537;-81
2023/12/22 07:40:42;;;;;;;1.80;0.37;;;2.60;99.90;;;;;;5074694;28;20447;-80
2023/12/22 07:43:10;;;;;;;0.40;0.30;;;2.70;99.90;;;;;;5077146;28;20567;-81
2023/12/22 07:45:37;;;;;;;0.47;0.40;;;2.60;99.90;;;;;;5078698;28;20504;-83
2023/12/22 07:48:05;;;;;;;0.73;0.30;;;2.60;99.90;;;;;;5083720;28;20537;-81
2023/12/22 07:50:33;;;;;;;1.23;0.37;;;2.70;99.90;;;;;;5077425;28;20803;-82
2023/12/22 07:53:00;;;;;;;0.40;0.40;;;2.70;99.90;;;;;;5080736;28;20474;-84
2023/12/22 07:55:27;;;;;;;1.03;0.30;;;2.80;99.90;;;;;;5080807;28;20459;-82
2023/12/22 07:57:54;;;;;;;1.43;0.37;;;2.80;99.90;;;;;;5084432;28;20443;-84
2023/12/22 08:00:21;;;;;;;0.50;0.30;;;2.80;99.90;;;;;;5077809;28;20459;-82
2023/12/22 08:02:48;;;;;;;1.10;0.50;;;2.80;99.90;;;;;;5074749;28;20938;-80
2023/12/22 08:05:16;;;;;;;1.60;0.40;;;2.90;99.90;;;;;;5083925;28;20482;-83
2023/12/22 08:07:44;;;;;;;0.47;0.30;;;2.90;99.90;;;;;;5075923;28;20515;-82
2023/12/22 08:10:11;;;;;;;0.40;0.20;;;3.00;99.90;;;;;;5081401;28;20463;-83
2023/12/22 08:12:38;;;;;;;1.30;0.30;;;3.10;99.90;;;;;;5080582;28;20582;-82
2023/12/22 08:15:06;;;;;;;0.53;0.40;;;3.10;99.90;;;;;;5081936;28;20564;-80
2023/12/22 08:17:33;;;;;;;1.67;0.40;;;3.20;99.90;;;;;;5075029;28;21057;-81
2023/12/22 08:20:00;;;;;;;1.00;0.33;;;3.30;99.90;;;;;;5081444;28;20512;-82
2023/12/22 08:22:27;;;;;;;0.80;0.40;;;3.30;99.90;;;;;;5085898;28;21015;-83
2023/12/22 08:24:59;;;;;;;3.17;1.57;;;3.30;99.90;;;;;;5081095;28;20522;-83
2023/12/22 08:27:26;;;;;;;2.53;0.90;;;3.30;99.90;;;;;;5074455;28;20486;-81
2023/12/22 08:29:53;;;;;;;0.40;0.40;;;3.30;99.90;;;;;;5078374;28;20969;-81
2023/12/22 08:32:20;;;;;;;2.07;1.10;;;3.30;99.90;;;;;;5072851;28;20505;-80
2023/12/22 08:34:47;;;;;;;6.27;2.97;;;3.30;99.90;;;;;;5079273;28;20559;-82
2023/12/22 08:37:14;;;;;;;6.53;2.73;;;3.30;99.90;;;;;;5070366;28;20501;-80
2023/12/22 08:39:40;;;;;;;1.90;1.27;;;3.40;99.90;;;;;;5080966;28;20459;-83
2023/12/22 08:42:08;;;;;;;1.00;0.60;;;3.40;99.90;;;;;;5070319;28;20513;-81
2023/12/22 08:44:36;;;;;;;2.50;0.60;;;3.50;99.90;;;;;;5071856;28;20564;-79
2023/12/22 08:47:04;;;;;;;3.10;0.90;;;3.50;99.90;;;;;;5077649;28;20483;-80
2023/12/22 08:49:31;;;;;;;6.00;1.40;;;3.50;99.90;;;;;;5073322;28;21221;-81
2023/12/22 08:51:57;;;;;;;3.43;1.30;;;3.50;99.90;;;;;;5076778;28;20508;-80
2023/12/22 08:54:26;;;;;;;2.53;0.40;;;3.50;99.90;;;;;;5077662;28;20988;-82
2023/12/22 08:56:53;;;;;;;1.07;0.60;;;3.50;99.90;;;;;;5085912;28;20459;-81
2023/12/22 08:59:21;;;;;;;0.90;0.40;;;3.50;99.90;;;;;;5074983;28;20527;-83
2023/12/22 09:01:48;;;;;;;0.97;0.53;;;3.60;99.90;;;;;;5084494;28;20459;-80
2023/12/22 09:04:16;;;;;;;0.60;0.43;;;3.60;99.90;;;;;;5084319;28;21110;-79
2023/12/22 09:06:43;;;;;;;0.50;0.30;;;3.60;99.90;;;;;;5095688;28;20910;-80
2023/12/22 09:09:10;;;;;;;16.17;0.53;;;3.70;99.90;;;;;;5083298;28;20528;-81
2023/12/22 09:11:37;;;;;;;2.33;0.67;;;3.70;99.90;;;;;;5083375;28;20474;-82
2023/12/22 09:14:09;;;;;;;3.93;0.73;;;3.60;99.90;;;;;;5075054;28;20533;-81
2023/12/22 09:16:38;;;;;;;0.63;0.40;;;3.60;99.90;;;;;;5077444;28;20858;-80
2023/12/22 09:19:05;;;;;;;1.40;0.40;;;3.60;99.90;;;;;;5080388;28;20458;-81
2023/12/22 09:21:32;;;;;;;0.40;0.20;;;3.60;99.90;;;;;;5075273;28;20448;-80
2023/12/22 09:23:59;;;;;;;0.50;0.37;;;3.60;99.90;;;;;;5084678;28;20519;-83
2023/12/22 09:26:26;;;;;;;1.43;0.40;;;3.70;99.90;;;;;;5083120;28;20494;-82
2023/12/22 09:28:53;;;;;;;0.40;0.20;;;3.70;99.90;;;;;;5081708;28;20448;-80
2023/12/22 09:31:19;;;;;;;0.50;0.20;;;3.80;99.90;;;;;;5080976;28;20941;-80
2023/12/22 09:33:48;;;;;;;0.60;0.40;;;3.80;99.90;;;;;;5080415;28;20463;-84
2023/12/22 09:36:15;;;;;;;0.77;0.53;;;3.90;99.90;;;;;;5076806;28;20447;-81
2023/12/22 09:38:43;;;;;;;0.87;0.40;;;4.00;99.90;;;;;;5079698;28;20531;-81
2023/12/22 09:41:11;;;;;;;0.60;0.30;;;4.10;99.90;;;;;;5085021;28;21108;-82
2023/12/22 09:43:39;;;;;;;1.10;0.87;;;4.30;99.90;;;;;;5076418;28;20465;-80
2023/12/22 09:46:08;;;;;;;1.13;0.40;;;4.30;99.90;;;;;;5083619;28;20561;-80
2023/12/22 09:48:39;;;;;;;1.03;0.30;;;4.20;99.90;;;;;;5086421;28;20451;-82
2023/12/22 09:51:08;;;;;;;1.80;0.50;;;4.20;99.90;;;;;;5075052;28;20563;-81
2023/12/22 09:53:39;;;;;;;0.43;0.30;;;4.20;99.90;;;;;;5080979;28;20512;-82
2023/12/22 09:56:07;;;;;;;1.80;0.30;;;4.20;99.90;;;;;;5084216;28;20889;-80
2023/12/22 09:58:36;;;;;;;1.33;0.40;;;4.10;99.90;;;;;;5088286;28;20507;-80
2023/12/22 10:01:06;;;;;;;0.40;0.30;;;4.10;99.90;;;;;;5080353;28;21222;-79
2023/12/22 10:03:34;;;;;;;0.50;0.33;;;4.10;99.90;;;;;;5074521;28;20999;-81
2023/12/22 10:06:02;;;;;;;0.73;0.20;;;4.10;99.90;;;;;;5075942;28;20569;-83
2023/12/22 10:08:31;;;;;;;1.17;0.30;;;4.10;99.90;;;;;;5077680;28;20452;-78
2023/12/22 10:10:58;;;;;;;0.83;0.40;;;4.20;99.90;;;;;;5073445;28;20967;-79
2023/12/22 10:13:27;;;;;;;5.80;0.30;;;4.20;99.90;;;;;;5077737;28;20497;-80
2023/12/22 10:15:56;;;;;;;2.20;0.50;;;4.30;99.90;;;;;;5074835;28;20501;-78
2023/12/22 10:18:23;;;;;;;0.40;0.30;;;4.40;99.90;;;;;;5066534;28;20436;-85
2023/12/22 10:20:50;;;;;;;0.40;0.20;;;4.50;99.90;;;;;;5082979;28;20513;-81
2023/12/22 10:23:17;;;;;;;2.20;1.17;;;4.50;99.90;;;;;;5073617;28;20512;-79
2023/12/22 10:25:46;;;;;;;0.40;0.27;;;4.70;99.90;;;;;;5082185;28;20491;-80
2023/12/22 10:28:13;;;;;;;0.70;0.30;;;4.70;99.90;;;;;;5077865;28;20475;-80
2023/12/22 10:30:41;;;;;;;0.40;0.40;;;4.80;99.90;;;;;;5075564;28;20919;-82
2023/12/22 10:33:08;;;;;;;0.40;0.20;;;4.80;99.90;;;;;;5077691;28;20500;-79
2023/12/22 10:35:35;;;;;;;0.40;0.20;;;4.90;99.90;;;;;;5074286;28;20859;-79
2023/12/22 10:38:02;;;;;;;1.53;0.37;;;5.00;99.90;;;;;;5078511;28;20467;-80
2023/12/22 10:40:30;;;;;;;1.63;1.17;;;5.00;99.90;;;;;;5077162;28;20537;-80
2023/12/22 10:43:00;;;;;;;1.00;0.30;;;5.00;99.90;;;;;;5072210;28;20497;-82
2023/12/22 10:45:29;;;;;;;0.80;0.40;;;5.10;99.90;;;;;;5073799;28;20536;-81
2023/12/22 10:47:56;;;;;;;0.50;0.30;;;5.10;99.90;;;;;;5073916;28;20483;-77
2023/12/22 10:50:25;;;;;;;0.43;0.30;;;5.10;99.90;;;;;;5076651;28;20468;-78
2023/12/22 10:52:53;;;;;;;1.13;0.30;;;5.10;99.90;;;;;;5077425;28;21207;-78
2023/12/22 10:55:20;;;;;;;0.60;0.37;;;5.20;99.90;;;;;;5077270;28;20449;-78
2023/12/22 10:57:48;;;;;;;0.50;0.30;;;5.10;99.90;;;;;;5081089;28;21196;-80
2023/12/22 11:00:18;;;;;;;0.70;0.30;;;5.10;99.90;;;;;;5085226;28;20962;-78
2023/12/22 11:02:49;;;;;;;0.87;0.30;;;5.10;99.90;;;;;;5085038;28;20447;-76
2023/12/22 11:05:17;;;;;;;0.47;0.47;;;5.20;99.90;;;;;;5074855;28;20483;-78
2023/12/22 11:07:50;;;;;;;0.50;0.40;;;5.10;99.90;;;;;;5082233;28;20501;-80
2023/12/22 11:10:21;;;;;;;2.00;0.30;;;5.10;99.90;;;;;;5086775;28;20539;-77
2023/12/22 11:12:48;;;;;;;0.80;0.37;;;5.10;99.90;;;;;;5085820;28;20494;-78
2023/12/22 11:15:19;;;;;;;2.43;0.20;;;5.00;99.90;;;;;;5088642;28;20435;-79
2023/12/22 11:17:47;;;;;;;0.70;0.30;;;4.90;99.90;;;;;;5076274;28;20974;-81
2023/12/22 11:20:14;;;;;;;0.40;0.27;;;4.80;99.90;;;;;;5081613;28;20491;-80
2023/12/22 11:22:44;;;;;;;0.60;0.30;;;4.60;99.90;;;;;;5083813;28;20486;-78
2023/12/22 11:25:11;;;;;;;0.90;0.20;;;4.40;99.90;;;;;;5083509;28;21061;-79
2023/12/22 11:27:38;;;;;;;1.27;0.60;;;4.30;99.90;;;;;;5077675;28;20464;-81
2023/12/22 11:30:08;;;;;;;0.40;0.20;;;4.20;99.90;;;;;;5083354;28;20580;-80
2023/12/22 11:32:36;;;;;;;0.83;0.60;;;4.00;99.90;;;;;;5075852;28;20961;-78
2023/12/22 11:35:05;;;;;;;1.27;0.33;;;4.00;99.90;;;;;;5074732;28;21011;-78
2023/12/22 11:37:33;;;;;;;1.37;0.30;;;3.90;99.90;;;;;;5079675;28;20459;-79
2023/12/22 11:40:00;;;;;;;2.53;0.30;;;3.80;99.90;;;;;;5083238;28;20483;-77
2023/12/22 11:42:31;;;;;;;1.30;0.33;;;3.70;99.90;;;;;;5077239;28;20448;-77
2023/12/22 11:44:58;;;;;;;0.50;0.30;;;3.70;99.90;;;;;;5081484;28;20497;-78
2023/12/22 11:47:27;;;;;;;1.37;0.40;;;3.70;99.90;;;;;;5079175;28;20899;-78
2023/12/22 11:49:57;;;;;;;0.57;0.30;;;3.70;99.90;;;;;;5086945;28;20447;-80
2023/12/22 11:52:29;;;;;;;5.40;1.70;;;3.80;99.90;;;;;;5076126;28;20460;-81
2023/12/22 11:54:58;;;;;;;3.73;2.57;;;3.80;99.90;;;;;;5072724;28;20979;-80
2023/12/22 11:57:32;;;;;;;5.07;2.90;;;4.00;99.90;;;;;;5081914;28;20544;-78
2023/12/22 12:00:03;;;;;;;2.20;0.90;;;4.10;99.90;;;;;;5076132;28;20993;-78
2023/12/22 12:02:31;;;;;;;1.60;1.23;;;4.20;99.90;;;;;;5074433;28;20539;-78
2023/12/22 12:05:00;;;;;;;8.07;5.87;;;4.30;99.90;;;;;;5085979;28;20604;-77
2023/12/22 12:07:45;;;;;;;3.77;2.17;;;4.40;99.90;;;;;;5089603;28;20458;-80
2023/12/22 12:10:14;;;;;;;5.90;2.70;;;4.50;99.90;;;;;;5087370;28;20463;-78
2023/12/22 12:12:41;;;;;;;2.20;1.37;;;4.50;99.90;;;;;;5087340;28;20538;-76
2023/12/22 12:15:10;;;;;;;1.60;0.87;;;4.50;99.90;;;;;;5085322;28;20451;-74
2023/12/22 12:17:42;;;;;;;0.93;0.70;;;4.50;99.90;;;;;;5079220;28;20527;-76
2023/12/22 12:20:12;;;;;;;0.60;0.40;;;4.50;99.90;;;;;;5082071;28;20439;-76
2023/12/22 12:22:40;;;;;;;1.23;0.90;;;4.50;99.90;;;;;;5084884;28;20459;-76
2023/12/22 12:25:11;;;;;;;0.63;0.33;;;4.30;99.90;;;;;;5083152;28;20482;-79
2023/12/22 12:27:39;;;;;;;0.40;0.20;;;4.10;99.90;;;;;;5078283;28;20467;-79
2023/12/22 12:30:14;;;;;;;0.40;0.23;;;3.60;99.90;;;;;;5084464;28;20455;-78
2023/12/22 12:32:45;;;;;;;0.50;0.30;;;3.30;99.90;;;;;;5081626;28;20448;-79
2023/12/22 12:35:14;;;;;;;2.20;0.30;;;3.00;99.90;;;;;;5085180;28;20458;-79
2023/12/22 12:37:45;;;;;;;0.40;0.20;;;2.90;99.90;;;;;;5083400;28;20455;-82
2023/12/22 12:40:12;;;;;;;0.90;0.27;;;2.80;99.90;;;;;;5083342;28;20458;-80
2023/12/22 12:42:39;;;;;;;0.40;0.30;;;2.70;99.90;;;;;;5079404;28;20439;-77
2023/12/22 12:45:08;;;;;;;0.67;0.30;;;2.50;99.90;;;;;;5086331;28;20519;-76
2023/12/22 12:47:35;;;;;;;0.50;0.20;;;2.30;99.90;;;;;;5074336;28;21123;-75
2023/12/22 12:50:02;;;;;;;0.30;0.20;;;2.10;99.90;;;;;;5075390;28;20455;-76
2023/12/22 12:52:31;;;;;;;0.40;0.30;;;2.10;99.90;;;;;;5079352;28;20911;-75
2023/12/22 12:54:59;;;;;;;2.20;0.30;;;2.10;99.90;;;;;;5080565;28;20458;-76
2023/12/22 12:57:27;;;;;;;0.40;0.20;;;2.10;99.90;;;;;;5080989;28;20468;-76
2023/12/22 12:59:54;;;;;;;0.50;0.30;;;2.00;99.90;;;;;;5081182;28;21047;-78